sensor_id;sensor_type;location;lat;lon;timestamp;P1;durP1;ratioP1;P2;durP2;ratioP2
54328;SDS011;40710;51.120;13.136;2023-01-10T00:00:07;3.16;;;3.16;;
54328;SDS011;40710;51.120;13.136;2023-01-10T00:02:32;3.20;;;3.19;;
54328;SDS011;40710;51.120;13.136;2023-01-10T00:04:56;3.24;;;3.23;;
54328;SDS011;40710;51.120;13.136;2023-01-10T00:07:21;3.19;;;3.18;;
54328;SDS011;40710;51.120;13.136;2023-01-10T00:09:45;3.29;;;3.27;;
54328;SDS011;40710;51.120;13.136;2023-01-10T00:12:10;3.30;;;3.28;;
54328;SDS011;40710;51.120;13.136;2023-01-10T00:15:04;3.31;;;3.25;;
54328;SDS011;40710;51.120;13.136;2023-01-10T00:17:29;3.42;;;3.38;;
54328;SDS011;40710;51.120;13.136;2023-01-10T00:19:53;3.33;;;3.33;;
54328;SDS011;40710;51.120;13.136;2023-01-10T00:22:18;3.00;;;3.00;;
54328;SDS011;40710;51.120;13.136;2023-01-10T00:24:48;3.17;;;3.16;;
54328;SDS011;40710;51.120;13.136;2023-01-10T00:27:12;3.66;;;3.62;;
54328;SDS011;40710;51.120;13.136;2023-01-10T00:29:40;3.37;;;3.32;;
54328;SDS011;40710;51.120;13.136;2023-01-10T00:32:04;3.50;;;3.46;;
54328;SDS011;40710;51.120;13.136;2023-01-10T00:34:29;3.26;;;3.26;;
54328;SDS011;40710;51.120;13.136;2023-01-10T00:36:55;3.35;;;3.35;;
54328;SDS011;40710;51.120;13.136;2023-01-10T00:39:20;3.42;;;3.41;;
54328;SDS011;40710;51.120;13.136;2023-01-10T00:41:44;3.61;;;3.59;;
54328;SDS011;40710;51.120;13.136;2023-01-10T00:44:28;3.47;;;3.40;;
54328;SDS011;40710;51.120;13.136;2023-01-10T00:46:52;4.00;;;3.93;;
54328;SDS011;40710;51.120;13.136;2023-01-10T00:49:17;3.72;;;3.68;;
54328;SDS011;40710;51.120;13.136;2023-01-10T00:51:42;3.53;;;3.53;;
54328;SDS011;40710;51.120;13.136;2023-01-10T00:54:08;3.60;;;3.59;;
54328;SDS011;40710;51.120;13.136;2023-01-10T00:56:33;3.95;;;3.95;;
54328;SDS011;40710;51.120;13.136;2023-01-10T00:58:57;3.78;;;3.78;;
54328;SDS011;40710;51.120;13.136;2023-01-10T01:01:22;4.02;;;4.02;;
54328;SDS011;40710;51.120;13.136;2023-01-10T01:03:46;4.21;;;4.21;;
54328;SDS011;40710;51.120;13.136;2023-01-10T01:06:11;4.16;;;4.16;;
54328;SDS011;40710;51.120;13.136;2023-01-10T01:08:35;4.31;;;4.31;;
54328;SDS011;40710;51.120;13.136;2023-01-10T01:11:00;4.38;;;4.35;;
54328;SDS011;40710;51.120;13.136;2023-01-10T01:13:25;4.39;;;4.33;;
54328;SDS011;40710;51.120;13.136;2023-01-10T01:15:49;4.51;;;4.44;;
54328;SDS011;40710;51.120;13.136;2023-01-10T01:18:15;4.43;;;4.38;;
54328;SDS011;40710;51.120;13.136;2023-01-10T01:20:47;4.39;;;4.31;;
54328;SDS011;40710;51.120;13.136;2023-01-10T01:23:15;4.57;;;4.49;;
54328;SDS011;40710;51.120;13.136;2023-01-10T01:25:40;4.85;;;4.76;;
54328;SDS011;40710;51.120;13.136;2023-01-10T01:28:05;5.17;;;5.08;;
54328;SDS011;40710;51.120;13.136;2023-01-10T01:30:30;5.10;;;5.09;;
54328;SDS011;40710;51.120;13.136;2023-01-10T01:32:54;5.08;;;5.06;;
54328;SDS011;40710;51.120;13.136;2023-01-10T01:35:19;4.84;;;4.84;;
54328;SDS011;40710;51.120;13.136;2023-01-10T01:37:43;4.90;;;4.89;;
54328;SDS011;40710;51.120;13.136;2023-01-10T01:40:14;4.95;;;4.95;;
54328;SDS011;40710;51.120;13.136;2023-01-10T01:42:42;5.02;;;4.99;;
54328;SDS011;40710;51.120;13.136;2023-01-10T01:47:49;5.03;;;4.94;;
54328;SDS011;40710;51.120;13.136;2023-01-10T01:50:24;4.70;;;4.67;;
54328;SDS011;40710;51.120;13.136;2023-01-10T01:52:53;4.97;;;4.95;;
54328;SDS011;40710;51.120;13.136;2023-01-10T01:55:21;4.88;;;4.88;;
54328;SDS011;40710;51.120;13.136;2023-01-10T01:57:50;4.87;;;4.87;;
54328;SDS011;40710;51.120;13.136;2023-01-10T02:00:20;5.56;;;5.48;;
54328;SDS011;40710;51.120;13.136;2023-01-10T02:02:46;5.67;;;5.49;;
54328;SDS011;40710;51.120;13.136;2023-01-10T02:05:17;5.25;;;5.15;;
54328;SDS011;40710;51.120;13.136;2023-01-10T02:07:49;5.19;;;5.07;;
54328;SDS011;40710;51.120;13.136;2023-01-10T02:10:23;5.60;;;5.49;;
54328;SDS011;40710;51.120;13.136;2023-01-10T02:12:57;5.32;;;5.25;;
54328;SDS011;40710;51.120;13.136;2023-01-10T02:15:27;5.66;;;5.53;;
54328;SDS011;40710;51.120;13.136;2023-01-10T02:17:52;5.63;;;5.54;;
54328;SDS011;40710;51.120;13.136;2023-01-10T02:20:18;5.36;;;5.26;;
54328;SDS011;40710;51.120;13.136;2023-01-10T02:25:46;5.73;;;5.59;;
54328;SDS011;40710;51.120;13.136;2023-01-10T02:28:57;5.80;;;5.70;;
54328;SDS011;40710;51.120;13.136;2023-01-10T02:31:53;5.95;;;5.88;;
54328;SDS011;40710;51.120;13.136;2023-01-10T02:34:41;5.45;;;5.41;;
54328;SDS011;40710;51.120;13.136;2023-01-10T02:37:47;6.07;;;5.89;;
54328;SDS011;40710;51.120;13.136;2023-01-10T02:43:19;6.12;;;6.00;;
54328;SDS011;40710;51.120;13.136;2023-01-10T02:45:59;6.04;;;5.96;;
54328;SDS011;40710;51.120;13.136;2023-01-10T02:48:34;6.48;;;6.28;;
54328;SDS011;40710;51.120;13.136;2023-01-10T02:51:02;6.31;;;6.20;;
54328;SDS011;40710;51.120;13.136;2023-01-10T02:53:35;6.03;;;5.92;;
54328;SDS011;40710;51.120;13.136;2023-01-10T02:56:20;6.46;;;6.29;;
54328;SDS011;40710;51.120;13.136;2023-01-10T03:02:14;6.43;;;6.39;;
54328;SDS011;40710;51.120;13.136;2023-01-10T03:04:59;6.36;;;6.30;;
54328;SDS011;40710;51.120;13.136;2023-01-10T03:07:52;6.79;;;6.65;;
54328;SDS011;40710;51.120;13.136;2023-01-10T03:13:04;7.02;;;6.75;;
54328;SDS011;40710;51.120;13.136;2023-01-10T03:15:42;7.03;;;6.85;;
54328;SDS011;40710;51.120;13.136;2023-01-10T03:18:17;6.62;;;6.47;;
54328;SDS011;40710;51.120;13.136;2023-01-10T03:20:47;7.08;;;6.88;;
54328;SDS011;40710;51.120;13.136;2023-01-10T03:23:16;7.11;;;6.85;;
54328;SDS011;40710;51.120;13.136;2023-01-10T03:25:45;6.65;;;6.45;;
54328;SDS011;40710;51.120;13.136;2023-01-10T03:28:12;6.78;;;6.60;;
54328;SDS011;40710;51.120;13.136;2023-01-10T03:30:53;6.97;;;6.77;;
54328;SDS011;40710;51.120;13.136;2023-01-10T03:33:34;7.14;;;6.94;;
54328;SDS011;40710;51.120;13.136;2023-01-10T03:40:57;7.27;;;7.08;;
54328;SDS011;40710;51.120;13.136;2023-01-10T03:49:11;7.27;;;7.14;;
54328;SDS011;40710;51.120;13.136;2023-01-10T03:51:39;7.05;;;6.86;;
54328;SDS011;40710;51.120;13.136;2023-01-10T03:54:06;7.45;;;7.22;;
54328;SDS011;40710;51.120;13.136;2023-01-10T03:56:31;7.59;;;7.36;;
54328;SDS011;40710;51.120;13.136;2023-01-10T03:59:06;14.81;;;14.28;;
54328;SDS011;40710;51.120;13.136;2023-01-10T04:01:31;8.88;;;8.59;;
54328;SDS011;40710;51.120;13.136;2023-01-10T04:03:56;7.93;;;7.65;;
54328;SDS011;40710;51.120;13.136;2023-01-10T04:06:20;7.88;;;7.66;;
54328;SDS011;40710;51.120;13.136;2023-01-10T04:08:45;7.90;;;7.62;;
54328;SDS011;40710;51.120;13.136;2023-01-10T04:11:09;8.47;;;8.12;;
54328;SDS011;40710;51.120;13.136;2023-01-10T04:13:34;8.37;;;8.10;;
54328;SDS011;40710;51.120;13.136;2023-01-10T04:15:59;8.20;;;7.92;;
54328;SDS011;40710;51.120;13.136;2023-01-10T04:18:24;8.84;;;8.47;;
54328;SDS011;40710;51.120;13.136;2023-01-10T04:20:48;8.16;;;7.96;;
54328;SDS011;40710;51.120;13.136;2023-01-10T04:23:13;8.21;;;8.01;;
54328;SDS011;40710;51.120;13.136;2023-01-10T04:25:37;8.54;;;8.26;;
54328;SDS011;40710;51.120;13.136;2023-01-10T04:28:02;8.82;;;8.50;;
54328;SDS011;40710;51.120;13.136;2023-01-10T04:30:26;9.21;;;8.78;;
54328;SDS011;40710;51.120;13.136;2023-01-10T04:32:51;8.70;;;8.46;;
54328;SDS011;40710;51.120;13.136;2023-01-10T04:35:15;8.07;;;7.95;;
54328;SDS011;40710;51.120;13.136;2023-01-10T04:37:40;8.38;;;8.16;;
54328;SDS011;40710;51.120;13.136;2023-01-10T04:40:04;8.38;;;8.17;;
54328;SDS011;40710;51.120;13.136;2023-01-10T04:42:30;7.96;;;7.76;;
54328;SDS011;40710;51.120;13.136;2023-01-10T04:44:54;7.75;;;7.50;;
54328;SDS011;40710;51.120;13.136;2023-01-10T04:47:19;8.05;;;7.80;;
54328;SDS011;40710;51.120;13.136;2023-01-10T04:49:43;8.03;;;7.82;;
54328;SDS011;40710;51.120;13.136;2023-01-10T04:52:08;8.04;;;7.92;;
54328;SDS011;40710;51.120;13.136;2023-01-10T04:54:34;7.63;;;7.45;;
54328;SDS011;40710;51.120;13.136;2023-01-10T04:56:59;7.46;;;7.38;;
54328;SDS011;40710;51.120;13.136;2023-01-10T04:59:24;7.65;;;7.47;;
54328;SDS011;40710;51.120;13.136;2023-01-10T05:01:48;8.14;;;8.02;;
54328;SDS011;40710;51.120;13.136;2023-01-10T05:04:13;7.50;;;7.40;;
54328;SDS011;40710;51.120;13.136;2023-01-10T05:06:37;7.77;;;7.67;;
54328;SDS011;40710;51.120;13.136;2023-01-10T05:09:03;7.84;;;7.69;;
54328;SDS011;40710;51.120;13.136;2023-01-10T05:11:28;7.93;;;7.79;;
54328;SDS011;40710;51.120;13.136;2023-01-10T05:13:52;7.85;;;7.72;;
54328;SDS011;40710;51.120;13.136;2023-01-10T05:16:17;7.99;;;7.73;;
54328;SDS011;40710;51.120;13.136;2023-01-10T05:18:41;7.66;;;7.55;;
54328;SDS011;40710;51.120;13.136;2023-01-10T05:21:07;7.79;;;7.67;;
54328;SDS011;40710;51.120;13.136;2023-01-10T05:23:33;7.42;;;7.24;;
54328;SDS011;40710;51.120;13.136;2023-01-10T05:26:05;7.27;;;7.08;;
54328;SDS011;40710;51.120;13.136;2023-01-10T05:28:31;7.53;;;7.30;;
54328;SDS011;40710;51.120;13.136;2023-01-10T05:30:56;7.29;;;7.12;;
54328;SDS011;40710;51.120;13.136;2023-01-10T05:33:21;7.83;;;7.60;;
54328;SDS011;40710;51.120;13.136;2023-01-10T05:35:45;7.82;;;7.63;;
54328;SDS011;40710;51.120;13.136;2023-01-10T05:38:10;7.20;;;7.00;;
54328;SDS011;40710;51.120;13.136;2023-01-10T05:40:34;6.96;;;6.83;;
54328;SDS011;40710;51.120;13.136;2023-01-10T05:42:59;7.19;;;7.00;;
54328;SDS011;40710;51.120;13.136;2023-01-10T05:45:23;7.20;;;6.99;;
54328;SDS011;40710;51.120;13.136;2023-01-10T05:47:48;6.99;;;6.80;;
54328;SDS011;40710;51.120;13.136;2023-01-10T05:50:12;7.39;;;7.22;;
54328;SDS011;40710;51.120;13.136;2023-01-10T05:52:37;7.01;;;7.00;;
54328;SDS011;40710;51.120;13.136;2023-01-10T05:55:01;7.05;;;6.90;;
54328;SDS011;40710;51.120;13.136;2023-01-10T05:57:26;7.80;;;7.65;;
54328;SDS011;40710;51.120;13.136;2023-01-10T05:59:50;9.22;;;9.21;;
54328;SDS011;40710;51.120;13.136;2023-01-10T06:02:15;7.03;;;6.95;;
54328;SDS011;40710;51.120;13.136;2023-01-10T06:04:39;7.43;;;7.21;;
54328;SDS011;40710;51.120;13.136;2023-01-10T06:07:04;7.86;;;7.61;;
54328;SDS011;40710;51.120;13.136;2023-01-10T06:09:28;7.73;;;7.54;;
54328;SDS011;40710;51.120;13.136;2023-01-10T06:11:53;7.77;;;7.56;;
54328;SDS011;40710;51.120;13.136;2023-01-10T06:14:17;7.75;;;7.61;;
54328;SDS011;40710;51.120;13.136;2023-01-10T06:16:42;7.65;;;7.64;;
54328;SDS011;40710;51.120;13.136;2023-01-10T06:19:07;8.00;;;7.98;;
54328;SDS011;40710;51.120;13.136;2023-01-10T06:21:32;8.04;;;8.01;;
54328;SDS011;40710;51.120;13.136;2023-01-10T06:23:57;12.05;;;11.69;;
54328;SDS011;40710;51.120;13.136;2023-01-10T06:26:21;26.42;;;25.27;;
54328;SDS011;40710;51.120;13.136;2023-01-10T06:28:46;16.30;;;15.58;;
54328;SDS011;40710;51.120;13.136;2023-01-10T06:31:10;8.96;;;8.65;;
54328;SDS011;40710;51.120;13.136;2023-01-10T06:33:35;8.56;;;8.28;;
54328;SDS011;40710;51.120;13.136;2023-01-10T06:36:01;8.46;;;8.24;;
54328;SDS011;40710;51.120;13.136;2023-01-10T06:38:26;8.18;;;7.99;;
54328;SDS011;40710;51.120;13.136;2023-01-10T06:40:51;10.71;;;10.39;;
54328;SDS011;40710;51.120;13.136;2023-01-10T06:43:15;12.14;;;11.79;;
54328;SDS011;40710;51.120;13.136;2023-01-10T06:45:40;8.45;;;8.20;;
54328;SDS011;40710;51.120;13.136;2023-01-10T06:48:04;8.12;;;7.95;;
54328;SDS011;40710;51.120;13.136;2023-01-10T06:50:29;7.96;;;7.74;;
54328;SDS011;40710;51.120;13.136;2023-01-10T06:52:58;7.93;;;7.69;;
54328;SDS011;40710;51.120;13.136;2023-01-10T06:55:24;7.74;;;7.61;;
54328;SDS011;40710;51.120;13.136;2023-01-10T06:57:53;7.64;;;7.53;;
54328;SDS011;40710;51.120;13.136;2023-01-10T07:00:19;8.53;;;8.26;;
54328;SDS011;40710;51.120;13.136;2023-01-10T07:02:44;8.24;;;7.89;;
54328;SDS011;40710;51.120;13.136;2023-01-10T07:05:08;8.24;;;8.01;;
54328;SDS011;40710;51.120;13.136;2023-01-10T07:07:33;7.83;;;7.75;;
54328;SDS011;40710;51.120;13.136;2023-01-10T07:09:57;7.46;;;7.40;;
54328;SDS011;40710;51.120;13.136;2023-01-10T07:12:22;7.85;;;7.64;;
54328;SDS011;40710;51.120;13.136;2023-01-10T07:14:47;8.05;;;7.94;;
54328;SDS011;40710;51.120;13.136;2023-01-10T07:17:12;7.76;;;7.74;;
54328;SDS011;40710;51.120;13.136;2023-01-10T07:19:36;8.87;;;8.69;;
54328;SDS011;40710;51.120;13.136;2023-01-10T07:22:01;9.30;;;9.11;;
54328;SDS011;40710;51.120;13.136;2023-01-10T07:24:25;8.99;;;8.73;;
54328;SDS011;40710;51.120;13.136;2023-01-10T07:26:50;8.64;;;8.40;;
54328;SDS011;40710;51.120;13.136;2023-01-10T07:29:14;8.41;;;8.19;;
54328;SDS011;40710;51.120;13.136;2023-01-10T07:31:39;8.56;;;8.42;;
54328;SDS011;40710;51.120;13.136;2023-01-10T07:34:03;8.17;;;8.10;;
54328;SDS011;40710;51.120;13.136;2023-01-10T07:36:28;8.32;;;8.17;;
54328;SDS011;40710;51.120;13.136;2023-01-10T07:38:52;8.07;;;7.91;;
54328;SDS011;40710;51.120;13.136;2023-01-10T07:41:17;8.18;;;7.99;;
54328;SDS011;40710;51.120;13.136;2023-01-10T07:43:41;7.98;;;7.74;;
54328;SDS011;40710;51.120;13.136;2023-01-10T07:46:06;8.13;;;7.96;;
54328;SDS011;40710;51.120;13.136;2023-01-10T07:48:32;7.72;;;7.57;;
54328;SDS011;40710;51.120;13.136;2023-01-10T07:50:57;10.59;;;10.36;;
54328;SDS011;40710;51.120;13.136;2023-01-10T07:53:24;20.29;;;19.59;;
54328;SDS011;40710;51.120;13.136;2023-01-10T07:55:49;9.26;;;9.02;;
54328;SDS011;40710;51.120;13.136;2023-01-10T07:58:14;7.30;;;7.17;;
54328;SDS011;40710;51.120;13.136;2023-01-10T08:00:39;7.35;;;7.16;;
54328;SDS011;40710;51.120;13.136;2023-01-10T08:03:03;7.38;;;7.21;;
54328;SDS011;40710;51.120;13.136;2023-01-10T08:05:29;6.74;;;6.73;;
54328;SDS011;40710;51.120;13.136;2023-01-10T08:07:53;6.59;;;6.57;;
54328;SDS011;40710;51.120;13.136;2023-01-10T08:10:22;5.71;;;5.66;;
54328;SDS011;40710;51.120;13.136;2023-01-10T08:12:49;5.23;;;5.17;;
54328;SDS011;40710;51.120;13.136;2023-01-10T08:15:13;5.64;;;5.59;;
54328;SDS011;40710;51.120;13.136;2023-01-10T08:17:39;4.95;;;4.95;;
54328;SDS011;40710;51.120;13.136;2023-01-10T08:20:03;4.91;;;4.90;;
54328;SDS011;40710;51.120;13.136;2023-01-10T08:22:28;4.86;;;4.84;;
54328;SDS011;40710;51.120;13.136;2023-01-10T08:24:53;5.08;;;4.99;;
54328;SDS011;40710;51.120;13.136;2023-01-10T08:27:17;4.92;;;4.85;;
54328;SDS011;40710;51.120;13.136;2023-01-10T08:29:42;5.17;;;5.16;;
54328;SDS011;40710;51.120;13.136;2023-01-10T08:32:07;5.08;;;5.07;;
54328;SDS011;40710;51.120;13.136;2023-01-10T08:34:32;5.61;;;5.57;;
54328;SDS011;40710;51.120;13.136;2023-01-10T08:36:57;5.31;;;5.26;;
54328;SDS011;40710;51.120;13.136;2023-01-10T08:39:21;5.26;;;5.26;;
54328;SDS011;40710;51.120;13.136;2023-01-10T08:41:49;5.49;;;5.47;;
54328;SDS011;40710;51.120;13.136;2023-01-10T08:44:14;5.92;;;5.86;;
54328;SDS011;40710;51.120;13.136;2023-01-10T08:46:38;5.94;;;5.87;;
54328;SDS011;40710;51.120;13.136;2023-01-10T08:49:03;6.44;;;6.34;;
54328;SDS011;40710;51.120;13.136;2023-01-10T08:51:27;6.03;;;6.00;;
54328;SDS011;40710;51.120;13.136;2023-01-10T08:53:52;6.09;;;6.09;;
54328;SDS011;40710;51.120;13.136;2023-01-10T08:56:17;6.42;;;6.39;;
54328;SDS011;40710;51.120;13.136;2023-01-10T08:58:41;6.39;;;6.37;;
54328;SDS011;40710;51.120;13.136;2023-01-10T09:01:06;6.30;;;6.30;;
54328;SDS011;40710;51.120;13.136;2023-01-10T09:03:31;5.63;;;5.61;;
54328;SDS011;40710;51.120;13.136;2023-01-10T09:05:59;6.13;;;6.07;;
54328;SDS011;40710;51.120;13.136;2023-01-10T09:08:25;6.09;;;6.09;;
54328;SDS011;40710;51.120;13.136;2023-01-10T09:10:49;6.26;;;6.21;;
54328;SDS011;40710;51.120;13.136;2023-01-10T09:13:14;6.88;;;6.83;;
54328;SDS011;40710;51.120;13.136;2023-01-10T09:15:38;5.70;;;5.68;;
54328;SDS011;40710;51.120;13.136;2023-01-10T09:18:06;5.56;;;5.56;;
54328;SDS011;40710;51.120;13.136;2023-01-10T09:20:32;5.03;;;5.03;;
54328;SDS011;40710;51.120;13.136;2023-01-10T09:23:00;9.82;;;9.58;;
54328;SDS011;40710;51.120;13.136;2023-01-10T09:25:31;5.90;;;5.79;;
54328;SDS011;40710;51.120;13.136;2023-01-10T09:27:57;4.83;;;4.72;;
54328;SDS011;40710;51.120;13.136;2023-01-10T09:30:23;3.94;;;3.87;;
54328;SDS011;40710;51.120;13.136;2023-01-10T09:32:51;4.79;;;4.73;;
54328;SDS011;40710;51.120;13.136;2023-01-10T09:35:16;4.05;;;4.02;;
54328;SDS011;40710;51.120;13.136;2023-01-10T09:37:41;3.83;;;3.81;;
54328;SDS011;40710;51.120;13.136;2023-01-10T09:40:05;4.40;;;4.37;;
54328;SDS011;40710;51.120;13.136;2023-01-10T09:45:15;9.85;;;9.67;;
54328;SDS011;40710;51.120;13.136;2023-01-10T09:47:54;8.95;;;8.59;;
54328;SDS011;40710;51.120;13.136;2023-01-10T09:50:49;4.15;;;4.06;;
54328;SDS011;40710;51.120;13.136;2023-01-10T09:53:50;3.64;;;3.59;;
54328;SDS011;40710;51.120;13.136;2023-01-10T09:56:23;3.31;;;3.28;;
54328;SDS011;40710;51.120;13.136;2023-01-10T09:58:47;3.05;;;3.03;;
54328;SDS011;40710;51.120;13.136;2023-01-10T10:01:17;3.14;;;3.13;;
54328;SDS011;40710;51.120;13.136;2023-01-10T10:06:37;4.17;;;4.17;;
54328;SDS011;40710;51.120;13.136;2023-01-10T10:09:02;3.99;;;3.99;;
54328;SDS011;40710;51.120;13.136;2023-01-10T10:11:30;4.56;;;4.56;;
54328;SDS011;40710;51.120;13.136;2023-01-10T10:15:14;5.14;;;5.11;;
54328;SDS011;40710;51.120;13.136;2023-01-10T10:17:39;5.07;;;5.05;;
54328;SDS011;40710;51.120;13.136;2023-01-10T10:20:17;5.34;;;5.33;;
54328;SDS011;40710;51.120;13.136;2023-01-10T10:23:01;5.36;;;5.33;;
54328;SDS011;40710;51.120;13.136;2023-01-10T10:28:53;5.06;;;5.06;;
54328;SDS011;40710;51.120;13.136;2023-01-10T10:34:20;4.77;;;4.77;;
54328;SDS011;40710;51.120;13.136;2023-01-10T10:36:57;4.72;;;4.72;;
54328;SDS011;40710;51.120;13.136;2023-01-10T10:39:38;6.40;;;6.40;;
54328;SDS011;40710;51.120;13.136;2023-01-10T10:42:13;5.16;;;5.14;;
54328;SDS011;40710;51.120;13.136;2023-01-10T10:47:13;4.78;;;4.78;;
54328;SDS011;40710;51.120;13.136;2023-01-10T10:49:55;4.70;;;4.70;;
54328;SDS011;40710;51.120;13.136;2023-01-10T10:52:42;4.71;;;4.71;;
54328;SDS011;40710;51.120;13.136;2023-01-10T10:55:12;4.37;;;4.35;;
54328;SDS011;40710;51.120;13.136;2023-01-10T10:57:39;4.62;;;4.54;;
54328;SDS011;40710;51.120;13.136;2023-01-10T11:00:06;4.39;;;4.34;;
54328;SDS011;40710;51.120;13.136;2023-01-10T11:02:38;4.66;;;4.62;;
54328;SDS011;40710;51.120;13.136;2023-01-10T11:05:34;4.45;;;4.39;;
54328;SDS011;40710;51.120;13.136;2023-01-10T11:08:03;4.29;;;4.23;;
54328;SDS011;40710;51.120;13.136;2023-01-10T11:10:33;4.79;;;4.75;;
54328;SDS011;40710;51.120;13.136;2023-01-10T11:12:59;4.90;;;4.85;;
54328;SDS011;40710;51.120;13.136;2023-01-10T11:15:37;4.61;;;4.61;;
54328;SDS011;40710;51.120;13.136;2023-01-10T11:20:53;4.24;;;4.22;;
54328;SDS011;40710;51.120;13.136;2023-01-10T11:26:48;4.51;;;4.44;;
54328;SDS011;40710;51.120;13.136;2023-01-10T11:28:48;4.74;;;4.69;;
54328;SDS011;40710;51.120;13.136;2023-01-10T11:31:25;4.81;;;4.76;;
54328;SDS011;40710;51.120;13.136;2023-01-10T11:33:51;4.33;;;4.25;;
54328;SDS011;40710;51.120;13.136;2023-01-10T11:36:16;4.79;;;4.74;;
54328;SDS011;40710;51.120;13.136;2023-01-10T11:38:40;4.66;;;4.61;;
54328;SDS011;40710;51.120;13.136;2023-01-10T11:41:12;4.29;;;4.24;;
54328;SDS011;40710;51.120;13.136;2023-01-10T11:43:48;4.00;;;3.96;;
54328;SDS011;40710;51.120;13.136;2023-01-10T11:46:14;4.00;;;3.94;;
54328;SDS011;40710;51.120;13.136;2023-01-10T11:48:47;3.72;;;3.66;;
54328;SDS011;40710;51.120;13.136;2023-01-10T11:51:26;3.49;;;3.42;;
54328;SDS011;40710;51.120;13.136;2023-01-10T11:53:58;3.34;;;3.20;;
54328;SDS011;40710;51.120;13.136;2023-01-10T11:56:30;3.08;;;2.93;;
54328;SDS011;40710;51.120;13.136;2023-01-10T11:58:59;2.92;;;2.77;;
54328;SDS011;40710;51.120;13.136;2023-01-10T12:01:38;3.30;;;3.10;;
54328;SDS011;40710;51.120;13.136;2023-01-10T12:04:12;2.78;;;2.63;;
54328;SDS011;40710;51.120;13.136;2023-01-10T12:06:41;2.89;;;2.76;;
54328;SDS011;40710;51.120;13.136;2023-01-10T12:12:01;3.27;;;3.18;;
54328;SDS011;40710;51.120;13.136;2023-01-10T12:14:29;2.80;;;2.68;;
54328;SDS011;40710;51.120;13.136;2023-01-10T12:16:58;3.00;;;2.89;;
54328;SDS011;40710;51.120;13.136;2023-01-10T12:19:24;2.87;;;2.76;;
54328;SDS011;40710;51.120;13.136;2023-01-10T12:21:48;3.06;;;2.94;;
54328;SDS011;40710;51.120;13.136;2023-01-10T12:24:17;4.12;;;3.96;;
54328;SDS011;40710;51.120;13.136;2023-01-10T12:26:52;10.96;;;10.62;;
54328;SDS011;40710;51.120;13.136;2023-01-10T12:29:22;4.02;;;3.86;;
54328;SDS011;40710;51.120;13.136;2023-01-10T12:31:57;2.87;;;2.75;;
54328;SDS011;40710;51.120;13.136;2023-01-10T12:34:30;3.15;;;2.96;;
54328;SDS011;40710;51.120;13.136;2023-01-10T12:37:08;4.10;;;3.83;;
54328;SDS011;40710;51.120;13.136;2023-01-10T12:39:52;4.00;;;3.82;;
54328;SDS011;40710;51.120;13.136;2023-01-10T12:42:35;3.22;;;3.10;;
54328;SDS011;40710;51.120;13.136;2023-01-10T12:45:50;3.40;;;3.22;;
54328;SDS011;40710;51.120;13.136;2023-01-10T12:48:21;3.47;;;3.31;;
54328;SDS011;40710;51.120;13.136;2023-01-10T12:50:55;3.66;;;3.53;;
54328;SDS011;40710;51.120;13.136;2023-01-10T12:55:59;3.75;;;3.63;;
54328;SDS011;40710;51.120;13.136;2023-01-10T12:58:39;3.77;;;3.69;;
54328;SDS011;40710;51.120;13.136;2023-01-10T13:01:09;4.07;;;3.99;;
54328;SDS011;40710;51.120;13.136;2023-01-10T13:03:39;4.52;;;4.39;;
54328;SDS011;40710;51.120;13.136;2023-01-10T13:06:06;4.07;;;3.96;;
54328;SDS011;40710;51.120;13.136;2023-01-10T13:08:44;4.18;;;4.00;;
54328;SDS011;40710;51.120;13.136;2023-01-10T13:11:08;4.22;;;4.05;;
54328;SDS011;40710;51.120;13.136;2023-01-10T13:13:41;3.61;;;3.50;;
54328;SDS011;40710;51.120;13.136;2023-01-10T13:16:27;3.96;;;3.85;;
54328;SDS011;40710;51.120;13.136;2023-01-10T13:19:05;3.64;;;3.57;;
54328;SDS011;40710;51.120;13.136;2023-01-10T13:21:47;3.70;;;3.61;;
54328;SDS011;40710;51.120;13.136;2023-01-10T13:24:18;4.01;;;3.87;;
54328;SDS011;40710;51.120;13.136;2023-01-10T13:26:52;3.66;;;3.59;;
54328;SDS011;40710;51.120;13.136;2023-01-10T13:34:49;5.18;;;5.11;;
54328;SDS011;40710;51.120;13.136;2023-01-10T13:37:26;3.43;;;3.40;;
54328;SDS011;40710;51.120;13.136;2023-01-10T13:40:00;3.48;;;3.43;;
54328;SDS011;40710;51.120;13.136;2023-01-10T13:42:28;3.85;;;3.66;;
54328;SDS011;40710;51.120;13.136;2023-01-10T13:45:17;3.47;;;3.33;;
54328;SDS011;40710;51.120;13.136;2023-01-10T13:52:51;3.55;;;3.42;;
54328;SDS011;40710;51.120;13.136;2023-01-10T13:55:32;3.65;;;3.54;;
54328;SDS011;40710;51.120;13.136;2023-01-10T14:00:45;3.31;;;3.25;;
54328;SDS011;40710;51.120;13.136;2023-01-10T14:06:06;3.10;;;3.03;;
54328;SDS011;40710;51.120;13.136;2023-01-10T14:08:47;3.19;;;3.13;;
54328;SDS011;40710;51.120;13.136;2023-01-10T14:11:28;3.63;;;3.56;;
54328;SDS011;40710;51.120;13.136;2023-01-10T14:14:35;4.66;;;4.61;;
54328;SDS011;40710;51.120;13.136;2023-01-10T14:17:09;3.55;;;3.52;;
54328;SDS011;40710;51.120;13.136;2023-01-10T14:19:37;3.47;;;3.43;;
54328;SDS011;40710;51.120;13.136;2023-01-10T14:22:05;3.57;;;3.53;;
54328;SDS011;40710;51.120;13.136;2023-01-10T14:27:05;3.64;;;3.61;;
54328;SDS011;40710;51.120;13.136;2023-01-10T14:29:39;4.87;;;4.83;;
54328;SDS011;40710;51.120;13.136;2023-01-10T14:32:23;4.29;;;4.24;;
54328;SDS011;40710;51.120;13.136;2023-01-10T14:35:06;4.15;;;4.12;;
54328;SDS011;40710;51.120;13.136;2023-01-10T14:37:33;6.51;;;6.47;;
54328;SDS011;40710;51.120;13.136;2023-01-10T14:40:25;4.21;;;4.21;;
54328;SDS011;40710;51.120;13.136;2023-01-10T14:43:01;4.26;;;4.26;;
54328;SDS011;40710;51.120;13.136;2023-01-10T14:51:16;4.36;;;4.34;;
54328;SDS011;40710;51.120;13.136;2023-01-10T14:53:44;4.49;;;4.47;;
54328;SDS011;40710;51.120;13.136;2023-01-10T14:56:22;5.01;;;4.98;;
54328;SDS011;40710;51.120;13.136;2023-01-10T15:01:41;5.38;;;5.31;;
54328;SDS011;40710;51.120;13.136;2023-01-10T15:04:11;5.03;;;5.01;;
54328;SDS011;40710;51.120;13.136;2023-01-10T15:06:53;5.11;;;5.11;;
54328;SDS011;40710;51.120;13.136;2023-01-10T15:09:26;4.96;;;4.96;;
54328;SDS011;40710;51.120;13.136;2023-01-10T15:11:52;5.42;;;5.41;;
54328;SDS011;40710;51.120;13.136;2023-01-10T15:14:20;8.38;;;8.32;;
54328;SDS011;40710;51.120;13.136;2023-01-10T15:16:50;6.19;;;6.07;;
54328;SDS011;40710;51.120;13.136;2023-01-10T15:19:19;4.76;;;4.72;;
54328;SDS011;40710;51.120;13.136;2023-01-10T15:21:47;4.68;;;4.65;;
54328;SDS011;40710;51.120;13.136;2023-01-10T15:24:27;4.38;;;4.36;;
54328;SDS011;40710;51.120;13.136;2023-01-10T15:26:56;4.27;;;4.24;;
54328;SDS011;40710;51.120;13.136;2023-01-10T15:29:23;4.40;;;4.37;;
54328;SDS011;40710;51.120;13.136;2023-01-10T15:31:48;4.46;;;4.46;;
54328;SDS011;40710;51.120;13.136;2023-01-10T15:34:18;4.55;;;4.52;;
54328;SDS011;40710;51.120;13.136;2023-01-10T15:36:49;4.29;;;4.29;;
54328;SDS011;40710;51.120;13.136;2023-01-10T15:39:21;4.29;;;4.28;;
54328;SDS011;40710;51.120;13.136;2023-01-10T15:41:49;7.13;;;7.07;;
54328;SDS011;40710;51.120;13.136;2023-01-10T15:44:21;6.77;;;6.69;;
54328;SDS011;40710;51.120;13.136;2023-01-10T15:46:52;5.09;;;5.04;;
54328;SDS011;40710;51.120;13.136;2023-01-10T15:49:20;4.72;;;4.71;;
54328;SDS011;40710;51.120;13.136;2023-01-10T15:51:47;4.87;;;4.86;;
54328;SDS011;40710;51.120;13.136;2023-01-10T15:56:52;4.80;;;4.78;;
54328;SDS011;40710;51.120;13.136;2023-01-10T15:59:27;4.75;;;4.73;;
54328;SDS011;40710;51.120;13.136;2023-01-10T16:01:57;4.53;;;4.52;;
54328;SDS011;40710;51.120;13.136;2023-01-10T16:04:36;4.04;;;4.03;;
54328;SDS011;40710;51.120;13.136;2023-01-10T16:07:17;4.48;;;4.46;;